createdAt,value
2022-09-01T00:00:35.724Z,36.07
2022-09-01T00:03:04.235Z,33.77
2022-09-01T00:05:33.056Z,30.97
2022-09-01T00:08:01.371Z,32.47
2022-09-01T00:10:29.579Z,33.40
2022-09-01T00:12:57.705Z,32.13
2022-09-01T00:15:28.193Z,31.57
2022-09-01T00:17:56.636Z,30.50
2022-09-01T00:20:24.978Z,26.27
2022-09-01T00:22:53.497Z,28.40
2022-09-01T00:25:23.593Z,29.97
2022-09-01T00:27:52.451Z,24.93
2022-09-01T00:30:20.851Z,24.83
2022-09-01T00:32:50.474Z,27.93
2022-09-01T00:35:20.186Z,26.60
2022-09-01T00:37:48.731Z,19.80
2022-09-01T00:40:19.475Z,19.73
2022-09-01T00:42:49.012Z,19.80
2022-09-01T00:45:17.358Z,18.23
2022-09-01T00:47:45.744Z,19.20
2022-09-01T00:50:17.475Z,22.40
2022-09-01T00:52:50.008Z,21.67
2022-09-01T00:55:22.582Z,24.07
2022-09-01T00:57:50.986Z,23.00
2022-09-01T01:00:21.672Z,21.90
2022-09-01T01:02:53.853Z,21.13
2022-09-01T01:05:28.107Z,21.87
2022-09-01T01:07:57.237Z,19.90
2022-09-01T01:10:26.748Z,21.93
2022-09-01T01:12:54.924Z,24.57
2022-09-01T01:15:23.239Z,20.13
2022-09-01T01:17:52.440Z,19.77
2022-09-01T01:20:40.713Z,16.27
2022-09-01T01:23:16.059Z,16.30
2022-09-01T01:25:48.465Z,15.30
2022-09-01T01:28:18.695Z,15.60
2022-09-01T01:30:51.154Z,16.33
2022-09-01T01:33:22.183Z,15.10
2022-09-01T01:35:52.508Z,15.40
2022-09-01T01:38:23.095Z,14.40
2022-09-01T01:40:54.697Z,13.63
2022-09-01T01:43:23.797Z,13.03
2022-09-01T01:45:54.958Z,13.83
2022-09-01T01:48:24.773Z,12.87
2022-09-01T01:50:55.663Z,11.70
2022-09-01T01:53:24.606Z,10.93
2022-09-01T01:55:54.826Z,10.87
2022-09-01T01:58:25.106Z,15.37
2022-09-01T02:00:55.949Z,13.00
2022-09-01T02:03:29.008Z,13.73
2022-09-01T02:06:00.074Z,11.13
2022-09-01T02:08:28.245Z,11.30
2022-09-01T02:11:00.242Z,10.87
2022-09-01T02:13:31.577Z,10.90
2022-09-01T02:16:02.923Z,13.07
2022-09-01T02:18:35.929Z,10.97
2022-09-01T02:21:07.128Z,11.40
2022-09-01T02:23:35.670Z,11.57
2022-09-01T02:26:17.279Z,12.33
2022-09-01T02:28:54.698Z,10.60
2022-09-01T02:31:24.189Z,10.13
2022-09-01T02:33:55.184Z,12.70
2022-09-01T02:36:25.399Z,14.43
2022-09-01T02:38:55.242Z,9.17
2022-09-01T02:41:29.388Z,12.33
2022-09-01T02:44:02.569Z,8.63
2022-09-01T02:46:31.248Z,11.33
2022-09-01T02:49:00.757Z,10.43
2022-09-01T02:51:29.134Z,11.70
2022-09-01T02:53:57.783Z,8.63
2022-09-01T02:56:27.601Z,10.00
2022-09-01T02:58:56.480Z,7.90
2022-09-01T03:01:27.346Z,8.40
2022-09-01T03:03:58.803Z,10.20
2022-09-01T03:06:28.207Z,13.43
2022-09-01T03:09:00.464Z,7.23
2022-09-01T03:11:32.647Z,9.20
2022-09-01T03:14:01.084Z,11.10
2022-09-01T03:16:30.633Z,9.67
2022-09-01T03:18:59.767Z,9.23
2022-09-01T03:21:28.043Z,9.83
2022-09-01T03:23:58.386Z,9.40
2022-09-01T03:26:26.669Z,11.20
2022-09-01T03:28:56.514Z,10.90
2022-09-01T03:31:29.106Z,10.70
2022-09-01T03:34:00.643Z,8.50
2022-09-01T03:36:30.941Z,10.57
2022-09-01T03:38:59.510Z,8.57
2022-09-01T03:41:29.791Z,9.83
2022-09-01T03:44:00.073Z,9.30
2022-09-01T03:46:36.260Z,10.27
2022-09-01T03:49:07.481Z,11.23
2022-09-01T03:51:38.032Z,11.10
2022-09-01T03:54:06.669Z,10.63
2022-09-01T03:56:35.006Z,10.90
2022-09-01T03:59:05.073Z,12.07
2022-09-01T04:01:41.752Z,9.43
2022-09-01T04:04:14.142Z,10.63
2022-09-01T04:06:43.599Z,18.50
2022-09-01T04:09:12.558Z,11.00
2022-09-01T04:11:45.770Z,9.80
2022-09-01T04:14:17.191Z,12.40
2022-09-01T04:17:03.720Z,13.40
2022-09-01T04:19:37.180Z,11.67
2022-09-01T04:22:06.027Z,11.90
2022-09-01T04:24:34.944Z,14.13
2022-09-01T04:27:07.846Z,12.30
2022-09-01T04:29:37.339Z,11.27
2022-09-01T04:32:12.817Z,18.33
2022-09-01T04:34:42.067Z,11.60
2022-09-01T04:37:13.025Z,14.33
2022-09-01T04:39:52.521Z,12.47
2022-09-01T04:42:23.562Z,14.45
2022-09-01T04:44:54.727Z,11.37
2022-09-01T04:47:35.559Z,12.30
2022-09-01T04:50:13.127Z,11.57
2022-09-01T04:52:42.401Z,11.47
2022-09-01T04:55:17.743Z,11.60
2022-09-01T04:57:49.631Z,11.50
2022-09-01T05:00:25.523Z,12.80
2022-09-01T05:02:55.936Z,13.10
2022-09-01T05:05:24.711Z,12.80
2022-09-01T05:07:55.850Z,12.80
2022-09-01T05:10:30.017Z,13.10
2022-09-01T05:12:58.816Z,13.80
2022-09-01T05:15:30.795Z,12.60
2022-09-01T05:18:02.368Z,13.97
2022-09-01T05:20:32.032Z,12.97
2022-09-01T05:23:00.766Z,14.07
2022-09-01T05:25:29.337Z,18.53
2022-09-01T05:27:57.872Z,20.43
2022-09-01T05:30:28.683Z,15.20
2022-09-01T05:32:58.145Z,15.37
2022-09-01T05:35:32.818Z,17.83
2022-09-01T05:38:01.692Z,15.10
2022-09-01T05:40:29.956Z,14.17
2022-09-01T05:42:59.202Z,13.67
2022-09-01T05:45:28.032Z,13.80
2022-09-01T05:48:10.327Z,14.73
2022-09-01T05:50:44.156Z,16.50
2022-09-01T05:53:17.657Z,14.77
2022-09-01T05:55:52.722Z,15.03
2022-09-01T05:58:21.564Z,16.90
2022-09-01T06:00:52.004Z,16.80
2022-09-01T06:03:21.189Z,13.97
2022-09-01T06:05:52.783Z,15.13
2022-09-01T06:08:46.934Z,13.43
2022-09-01T06:11:37.609Z,12.03
2022-09-01T06:14:06.081Z,13.03
2022-09-01T06:16:36.252Z,13.43
2022-09-01T06:19:05.088Z,13.93
2022-09-01T06:21:34.731Z,11.77
2022-09-01T06:24:05.036Z,12.80
2022-09-01T06:26:44.504Z,12.30
2022-09-01T06:29:15.578Z,11.23
2022-09-01T06:31:51.799Z,14.50
2022-09-01T06:34:20.815Z,14.03
2022-09-01T06:36:52.786Z,15.60
2022-09-01T06:39:21.167Z,12.23
2022-09-01T06:41:50.780Z,14.17
2022-09-01T06:44:22.644Z,14.53
2022-09-01T06:46:52.090Z,11.80
2022-09-01T06:49:21.513Z,14.73
2022-09-01T06:51:52.830Z,16.33
2022-09-01T06:54:21.875Z,12.90
2022-09-01T06:56:51.543Z,14.43
2022-09-01T06:59:21.985Z,20.87
2022-09-01T07:02:01.363Z,14.30
2022-09-01T07:04:31.534Z,14.27
2022-09-01T07:10:06.261Z,15.07
2022-09-01T07:13:04.825Z,15.37
2022-09-01T07:18:22.478Z,12.30
2022-09-01T07:21:36.899Z,13.10
2022-09-01T07:24:05.856Z,14.77
2022-09-01T07:26:33.905Z,13.67
2022-09-01T07:29:04.364Z,13.70
2022-09-01T07:34:46.147Z,13.93
2022-09-01T07:42:55.722Z,14.40
2022-09-01T07:43:12.891Z,11.47
2022-09-01T07:45:57.584Z,13.00
2022-09-01T07:48:37.214Z,9.27
2022-09-01T07:51:36.538Z,9.43
2022-09-01T07:54:05.878Z,9.97
2022-09-01T07:56:40.074Z,14.00
2022-09-01T07:59:12.740Z,11.53
2022-09-01T08:01:44.006Z,10.63
2022-09-01T08:04:12.140Z,11.87
2022-09-01T08:06:40.930Z,10.80
2022-09-01T08:09:11.925Z,9.97
2022-09-01T08:12:03.084Z,10.27
2022-09-01T08:14:34.160Z,10.67
2022-09-01T08:17:16.798Z,8.70
2022-09-01T08:19:47.265Z,9.53
2022-09-01T08:22:15.856Z,8.63
2022-09-01T08:24:44.965Z,8.40
2022-09-01T08:27:14.477Z,9.10
2022-09-01T08:29:43.352Z,10.63
2022-09-01T08:32:12.236Z,9.93
2022-09-01T08:34:40.530Z,12.60
2022-09-01T08:37:08.713Z,12.20
2022-09-01T08:39:36.937Z,11.30
2022-09-01T08:42:12.552Z,10.73
2022-09-01T08:44:46.305Z,19.13
2022-09-01T08:47:27.833Z,12.77
2022-09-01T08:49:57.669Z,11.80
2022-09-01T08:52:30.765Z,8.57
2022-09-01T08:55:01.926Z,11.20
2022-09-01T08:57:34.169Z,9.30
2022-09-01T09:00:05.495Z,10.60
2022-09-01T09:02:47.852Z,10.10
2022-09-01T09:05:28.418Z,8.50
2022-09-01T09:08:09.879Z,9.60
2022-09-01T09:10:49.696Z,26.57
2022-09-01T09:13:24.177Z,11.40
2022-09-01T09:16:10.672Z,10.17
2022-09-01T09:18:54.808Z,12.67
2022-09-01T09:21:26.976Z,11.20
2022-09-01T09:23:59.466Z,10.93
2022-09-01T09:26:42.074Z,10.50
2022-09-01T09:29:15.610Z,9.83
2022-09-01T09:31:50.755Z,12.27
2022-09-01T09:34:33.367Z,10.70
2022-09-01T09:37:23.184Z,11.67
2022-09-01T09:40:23.430Z,10.63
2022-09-01T09:43:05.186Z,9.13
2022-09-01T09:45:36.302Z,7.83
2022-09-01T09:48:10.915Z,9.90
2022-09-01T09:50:47.426Z,13.20
2022-09-01T09:53:19.842Z,8.07
2022-09-01T09:56:01.295Z,10.73
2022-09-01T09:58:35.709Z,7.93
2022-09-01T10:01:08.309Z,10.67
2022-09-01T10:03:42.324Z,9.30
2022-09-01T10:06:15.612Z,8.60
2022-09-01T10:08:48.663Z,10.67
2022-09-01T10:11:35.506Z,9.07
2022-09-01T10:14:07.908Z,7.17
2022-09-01T10:16:41.730Z,8.13
2022-09-01T10:19:16.368Z,7.53
2022-09-01T10:21:46.239Z,6.33
2022-09-01T10:24:22.436Z,9.57
2022-09-01T10:26:56.731Z,7.87
2022-09-01T10:29:33.571Z,9.50
2022-09-01T10:32:28.478Z,7.20
2022-09-01T10:34:59.509Z,6.10
2022-09-01T10:37:31.680Z,8.53
2022-09-01T10:40:20.179Z,6.43
2022-09-01T10:42:55.389Z,8.17
2022-09-01T10:45:36.014Z,5.10
2022-09-01T10:48:31.188Z,5.30
2022-09-01T10:51:38.792Z,5.27
2022-09-01T10:55:01.786Z,7.00
2022-09-01T10:57:52.561Z,4.60
2022-09-01T11:04:02.233Z,5.63
2022-09-01T11:07:12.238Z,4.80
2022-09-01T11:09:43.405Z,5.47
2022-09-01T11:12:30.443Z,5.93
2022-09-01T11:15:00.056Z,5.10
2022-09-01T11:17:30.554Z,7.00
2022-09-01T11:20:09.048Z,6.27
2022-09-01T11:22:39.415Z,7.57
2022-09-01T11:25:16.255Z,4.00
2022-09-01T11:28:19.809Z,4.53
2022-09-01T11:30:55.594Z,6.53
2022-09-01T11:33:40.325Z,3.27
2022-09-01T11:36:15.239Z,8.23
2022-09-01T11:38:49.798Z,3.93
2022-09-01T11:41:25.042Z,4.30
2022-09-01T11:43:58.707Z,6.70
2022-09-01T11:46:29.347Z,5.07
2022-09-01T11:48:59.209Z,8.37
2022-09-01T11:51:28.420Z,6.67
2022-09-01T11:54:03.075Z,5.97
2022-09-01T11:56:32.525Z,6.20
2022-09-01T11:59:00.981Z,5.10
2022-09-01T12:01:34.157Z,6.97
2022-09-01T12:04:22.368Z,4.53
2022-09-01T12:06:58.047Z,3.50
2022-09-01T12:09:37.010Z,3.50
2022-09-01T12:12:09.253Z,3.30
2022-09-01T12:15:01.936Z,3.00
2022-09-01T12:17:26.230Z,3.60
2022-09-01T12:19:54.467Z,4.40
2022-09-01T12:22:23.731Z,8.80
2022-09-01T12:24:54.827Z,3.50
2022-09-01T12:27:27.592Z,2.40
2022-09-01T12:29:56.763Z,3.10
2022-09-01T12:32:25.457Z,2.70
2022-09-01T12:35:04.279Z,2.70
2022-09-01T12:37:37.582Z,4.50
2022-09-01T12:40:07.775Z,2.53
2022-09-01T12:42:41.573Z,3.53
2022-09-01T12:45:13.177Z,3.03
2022-09-01T12:47:53.164Z,2.63
2022-09-01T12:50:52.018Z,4.90
2022-09-01T12:53:24.113Z,3.00
2022-09-01T12:56:08.066Z,2.60
2022-09-01T12:58:37.788Z,4.33
2022-09-01T13:01:13.824Z,2.30
2022-09-01T13:03:45.592Z,3.43
2022-09-01T13:06:13.754Z,2.23
2022-09-01T13:08:43.368Z,2.80
2022-09-01T13:11:13.630Z,3.93
2022-09-01T13:13:43.361Z,4.00
2022-09-01T13:16:13.019Z,2.23
2022-09-01T13:21:32.594Z,4.03
2022-09-01T13:24:00.693Z,5.50
2022-09-01T13:26:31.361Z,5.87
2022-09-01T13:29:01.731Z,3.57
2022-09-01T13:31:31.645Z,9.03
2022-09-01T13:34:21.968Z,3.07
2022-09-01T13:36:52.145Z,2.50
2022-09-01T13:39:22.785Z,2.40
2022-09-01T13:41:51.683Z,3.70
2022-09-01T13:44:21.503Z,1.80
2022-09-01T13:49:44.911Z,3.53
2022-09-01T13:52:27.639Z,4.23
2022-09-01T13:54:55.926Z,1.67
2022-09-01T13:57:24.436Z,4.53
2022-09-01T13:59:55.443Z,1.83
2022-09-01T14:02:26.790Z,2.63
2022-09-01T14:04:54.900Z,3.13
2022-09-01T14:07:23.591Z,3.73
2022-09-01T14:09:52.647Z,2.27
2022-09-01T14:12:20.753Z,4.57
2022-09-01T14:17:39.993Z,3.23
2022-09-01T14:20:10.922Z,4.77
2022-09-01T14:22:40.264Z,3.33
2022-09-01T14:25:09.275Z,2.97
2022-09-01T14:27:37.499Z,2.10
2022-09-01T14:30:07.184Z,3.30
2022-09-01T14:32:36.197Z,2.23
2022-09-01T14:35:08.267Z,3.47
2022-09-01T14:37:38.349Z,2.20
2022-09-01T14:40:09.122Z,1.60
2022-09-01T14:42:43.819Z,2.63
2022-09-01T14:45:12.662Z,5.10
2022-09-01T14:47:40.763Z,2.27
2022-09-01T14:50:11.148Z,3.40
2022-09-01T14:52:40.067Z,4.90
2022-09-01T14:55:08.519Z,4.43
2022-09-01T14:57:38.475Z,3.00
2022-09-01T15:00:12.492Z,3.27
2022-09-01T15:02:42.315Z,3.17
2022-09-01T15:05:13.383Z,2.40
2022-09-01T15:07:41.932Z,3.97
2022-09-01T15:10:16.063Z,3.03
2022-09-01T15:12:53.915Z,2.43
2022-09-01T15:15:22.134Z,2.63
2022-09-01T15:17:50.558Z,2.93
2022-09-01T15:20:38.045Z,2.73
2022-09-01T15:23:07.061Z,6.53
2022-09-01T15:25:35.522Z,3.23
2022-09-01T15:28:09.839Z,2.90
2022-09-01T15:30:39.769Z,2.90
2022-09-01T15:33:15.191Z,3.40
2022-09-01T15:35:46.104Z,1.93
2022-09-01T15:38:16.142Z,2.60
2022-09-01T15:40:53.595Z,2.37
2022-09-01T15:43:27.830Z,3.87
2022-09-01T15:45:58.271Z,5.87
2022-09-01T15:48:27.522Z,3.20
2022-09-01T15:51:08.537Z,4.20
2022-09-01T15:53:36.627Z,4.13
2022-09-01T15:56:05.246Z,7.33
2022-09-01T15:58:44.576Z,8.87
2022-09-01T16:01:22.631Z,5.07
2022-09-01T16:03:50.920Z,4.63
2022-09-01T16:06:20.490Z,4.40
2022-09-01T16:08:49.905Z,13.33
2022-09-01T16:11:18.164Z,6.63
2022-09-01T16:13:47.245Z,2.40
2022-09-01T16:16:35.296Z,2.40
2022-09-01T16:19:09.295Z,2.80
2022-09-01T16:21:46.936Z,2.83
2022-09-01T16:24:15.765Z,4.33
2022-09-01T16:26:48.110Z,2.80
2022-09-01T16:29:20.919Z,2.20
2022-09-01T16:31:53.107Z,4.03
2022-09-01T16:34:27.724Z,3.77
2022-09-01T16:37:03.297Z,1.47
2022-09-01T16:39:36.171Z,2.20
2022-09-01T16:42:14.124Z,4.33
2022-09-01T16:44:51.982Z,2.23
2022-09-01T16:47:49.926Z,3.70
2022-09-01T16:50:27.390Z,3.73
2022-09-01T16:53:08.140Z,1.97
2022-09-01T16:55:42.571Z,3.40
2022-09-01T16:58:22.433Z,2.00
2022-09-01T17:01:00.542Z,2.10
2022-09-01T17:03:42.897Z,9.60
2022-09-01T17:06:15.571Z,3.40
2022-09-01T17:08:52.574Z,5.23
2022-09-01T17:11:26.237Z,2.80
2022-09-01T17:13:56.175Z,2.80
2022-09-01T17:16:29.768Z,2.90
2022-09-01T17:18:59.961Z,4.40
2022-09-01T17:21:33.225Z,2.20
2022-09-01T17:24:12.610Z,2.50
2022-09-01T17:26:44.196Z,2.43
2022-09-01T17:29:23.160Z,4.50
2022-09-01T17:31:59.917Z,2.87
2022-09-01T17:34:38.988Z,3.20
2022-09-01T17:37:18.006Z,2.50
2022-09-01T17:39:54.850Z,2.20
2022-09-01T17:42:30.267Z,4.70
2022-09-01T17:45:04.232Z,3.80
2022-09-01T17:47:37.486Z,3.20
2022-09-01T17:50:13.593Z,9.40
2022-09-01T17:52:52.909Z,1.70
2022-09-01T17:55:40.815Z,3.27
2022-09-01T17:58:14.007Z,8.00
2022-09-01T18:00:48.370Z,1.77
2022-09-01T18:03:27.981Z,2.93
2022-09-01T18:06:01.121Z,1.90
2022-09-01T18:08:40.859Z,1.57
2022-09-01T18:11:13.603Z,2.00
2022-09-01T18:13:53.214Z,2.37
2022-09-01T18:16:25.407Z,1.50
2022-09-01T18:18:53.849Z,2.13
2022-09-01T18:21:24.321Z,2.00
2022-09-01T18:23:55.779Z,2.00
2022-09-01T18:26:29.777Z,1.60
2022-09-01T18:28:58.705Z,2.13
2022-09-01T18:31:49.198Z,2.70
2022-09-01T18:34:22.538Z,4.93
2022-09-01T18:36:56.418Z,3.60
2022-09-01T18:39:30.819Z,2.27
2022-09-01T18:42:09.728Z,2.90
2022-09-01T18:44:45.090Z,2.90
2022-09-01T18:47:14.491Z,1.97
2022-09-01T18:49:53.475Z,4.27
2022-09-01T18:52:31.497Z,3.10
2022-09-01T18:55:04.903Z,4.27
2022-09-01T18:57:37.686Z,4.03
2022-09-01T19:00:19.325Z,4.67
2022-09-01T19:03:01.836Z,7.30
2022-09-01T19:06:00.510Z,1.97
2022-09-01T19:08:46.668Z,2.07
2022-09-01T19:11:18.987Z,3.80
2022-09-01T19:13:55.739Z,4.43
2022-09-01T19:16:34.136Z,3.77
2022-09-01T19:19:06.225Z,6.37
2022-09-01T19:21:34.820Z,5.13
2022-09-01T19:24:06.729Z,2.80
2022-09-01T19:26:42.478Z,2.90
2022-09-01T19:29:16.545Z,3.57
2022-09-01T19:31:49.320Z,2.27
2022-09-01T19:34:20.200Z,2.20
2022-09-01T19:36:55.437Z,3.50
2022-09-01T19:39:26.391Z,11.33
2022-09-01T19:41:56.536Z,2.40
2022-09-01T19:44:33.046Z,6.30
2022-09-01T19:47:06.897Z,7.57
2022-09-01T19:49:41.002Z,4.87
2022-09-01T19:52:12.128Z,2.63
2022-09-01T19:54:45.920Z,2.40
2022-09-01T19:57:20.857Z,3.23
2022-09-01T19:59:57.612Z,5.13
2022-09-01T20:02:31.183Z,6.70
2022-09-01T20:05:07.094Z,3.77
2022-09-01T20:07:39.483Z,6.43
2022-09-01T20:10:37.759Z,7.40
2022-09-01T20:13:20.079Z,5.70
2022-09-01T20:15:53.426Z,10.30
2022-09-01T20:18:27.411Z,4.93
2022-09-01T20:20:57.091Z,5.47
2022-09-01T20:23:28.803Z,4.27
2022-09-01T20:26:03.928Z,3.40
2022-09-01T20:28:42.199Z,3.47
2022-09-01T20:31:17.178Z,3.47
2022-09-01T20:33:48.767Z,2.60
2022-09-01T20:36:21.364Z,3.10
2022-09-01T20:39:11.386Z,4.20
2022-09-01T20:41:44.806Z,2.63
2022-09-01T20:44:18.970Z,4.50
2022-09-01T20:46:48.838Z,3.80
2022-09-01T20:49:17.919Z,3.10
2022-09-01T20:51:51.754Z,3.67
2022-09-01T20:54:31.321Z,4.70
2022-09-01T20:57:05.810Z,5.27
2022-09-01T20:59:38.751Z,7.00
2022-09-01T21:02:15.326Z,4.20
2022-09-01T21:04:49.741Z,3.87
2022-09-01T21:07:21.741Z,3.53
2022-09-01T21:09:58.388Z,3.37
2022-09-01T21:12:35.108Z,3.70
2022-09-01T21:15:18.208Z,4.67
2022-09-01T21:17:57.226Z,4.80
2022-09-01T21:20:32.742Z,4.00
2022-09-01T21:23:01.878Z,2.30
2022-09-01T21:25:34.987Z,6.30
2022-09-01T21:28:06.700Z,5.53
2022-09-01T21:30:35.682Z,4.33
2022-09-01T21:33:06.653Z,2.50
2022-09-01T21:35:35.193Z,3.73
2022-09-01T21:38:03.345Z,3.07
2022-09-01T21:40:32.019Z,2.90
2022-09-01T21:43:02.982Z,3.93
2022-09-01T21:45:32.006Z,5.93
2022-09-01T21:48:00.902Z,3.63
2022-09-01T21:50:30.669Z,5.00
2022-09-01T21:52:59.213Z,5.60
2022-09-01T21:55:27.769Z,4.13
2022-09-01T21:57:56.732Z,3.90
2022-09-01T22:00:27.014Z,5.80
2022-09-01T22:02:57.603Z,5.80
2022-09-01T22:05:26.456Z,4.33
2022-09-01T22:07:58.996Z,3.60
2022-09-01T22:10:31.518Z,3.73
2022-09-01T22:13:00.925Z,3.80
2022-09-01T22:15:30.352Z,5.00
2022-09-01T22:17:58.697Z,4.20
2022-09-01T22:20:28.975Z,3.60
2022-09-01T22:23:02.143Z,7.53
2022-09-01T22:25:31.389Z,5.33
2022-09-01T22:27:59.971Z,3.23
2022-09-01T22:30:28.288Z,4.73
2022-09-01T22:32:56.689Z,3.57
2022-09-01T22:35:25.018Z,5.90
2022-09-01T22:37:53.444Z,5.10
2022-09-01T22:40:23.132Z,3.10
2022-09-01T22:42:52.538Z,2.73
2022-09-01T22:45:21.287Z,4.13
2022-09-01T22:47:49.620Z,3.43
2022-09-01T22:50:18.201Z,6.90
2022-09-01T22:52:46.916Z,4.30
2022-09-01T22:55:15.813Z,5.37
2022-09-01T22:57:45.664Z,4.17
2022-09-01T23:00:15.158Z,5.30
2022-09-01T23:02:45.055Z,6.20
2022-09-01T23:05:13.205Z,3.73
2022-09-01T23:07:41.373Z,5.37
2022-09-01T23:10:10.618Z,4.93
2022-09-01T23:12:39.398Z,3.67
2022-09-01T23:15:11.164Z,5.77
2022-09-01T23:17:39.728Z,6.40
2022-09-01T23:20:12.557Z,4.60
2022-09-01T23:22:41.248Z,6.10
2022-09-01T23:25:11.284Z,6.30
2022-09-01T23:27:40.286Z,7.30
2022-09-01T23:30:13.925Z,4.70
2022-09-01T23:32:42.525Z,5.43
2022-09-01T23:35:11.842Z,7.60
2022-09-01T23:37:40.127Z,4.80
2022-09-01T23:40:10.415Z,3.23
2022-09-01T23:42:39.441Z,5.00
2022-09-01T23:45:10.297Z,4.37
2022-09-01T23:47:38.444Z,11.53
2022-09-01T23:50:07.803Z,3.97
2022-09-01T23:52:36.474Z,8.47
2022-09-01T23:55:04.721Z,4.30
2022-09-01T23:57:33.721Z,7.60
